Overview Statistics Trail Chart Weather Telemetry Raw packets
 

This is the latest recevied packets stored in our database for station/object DL4LIF-8. If no packets are shown the sender has not sent any packets the latest 24 hours.

If you compare the raw packets with similar data from other websites it may differ (especially the path), the reason is that we are not collecting packets from the same APRS-IS servers. Each APRS-IS server performes duplicate filtering, and which packet that is considered to be a duplicate may differ depending on which APRS-IS server you receive your data from.

<< 1 2 3 4 >>

1788567345: DL4LIF-8>APRSMC,TCPIP*,qAR,DO2LRF-11:T#954,1012.3,16.1,60.4,1012.5,0.0,00000000

1788567345: DL4LIF-8>APRSMC,TCPIP*,qAR,DO2LRF-11:!5325.69N/01021.18Es/B=100/A=000003

1788565530: DL4LIF-8>APRSMC,TCPIP*,qAR,DO2LRF-11:T#953,1012.0,16.3,60.1,1012.1,0.0,00000000

1788565530: DL4LIF-8>APRSMC,TCPIP*,qAR,DO2LRF-11:!5325.69N/01021.18Es/B=100/A=000010

1788560085: DL4LIF-8>APRSMC,TCPIP*,qAR,DO2LRF-11:T#952,1011.3,17.0,59.6,1011.4,0.0,00000000

1788560085: DL4LIF-8>APRSMC,TCPIP*,qAR,DO2LRF-11:!5325.69N/01021.18Es/B=100

1788558270: DL4LIF-8>APRSMC,TCPIP*,qAR,DO2LRF-11::DL4LIF-8 :PARM.Press,Temp.in,Hum,QNH,Temp.out,track,-,-,-,-,-,-,-

1788558270: DL4LIF-8>APRSMC,TCPIP*,qAR,DO2LRF-11::DL4LIF-8 :UNIT.hPa,C deg,%,hPa,C deg,Y/N,O/N,O/N,O/N,O/N,O/N,O/N,O/N

1788558270: DL4LIF-8>APRSMC,TCPIP*,qAR,DO2LRF-11:T#951,1011.0,17.3,59.5,1011.1,0.0,00000000

1788558270: DL4LIF-8>APRSMC,TCPIP*,qAR,DO2LRF-11::DL4LIF-8 :EQNS.0,1,0,0,1,0,0,1,0,0,1,0,0,1,0

1788558270: DL4LIF-8>APRSMC,TCPIP*,qAR,DO2LRF-11:!5325.69N/01021.18Es/B=100

1788556453: DL4LIF-8>APRSMC,TCPIP*,qAR,DO2LRF-11:T#950,1010.7,17.6,59.5,1010.8,0.0,00000000

1788556453: DL4LIF-8>APRSMC,TCPIP*,qAR,DO2LRF-11:!5325.69N/01021.18Es/B=100/A=000007

1788554638: DL4LIF-8>APRSMC,TCPIP*,qAR,DO2LRF-11:T#949,1010.6,17.9,59.9,1010.8,0.0,00000000

1788554638: DL4LIF-8>APRSMC,TCPIP*,qAR,DO2LRF-11:!5325.69N/01021.18Es/B=100/A=000010

1788552822: DL4LIF-8>APRSMC,TCPIP*,qAR,DO2LRF-11:T#948,1010.7,18.2,60.4,1010.8,0.0,00000000

1788552822: DL4LIF-8>APRSMC,TCPIP*,qAR,DO2LRF-11:!5325.69N/01021.18Es/B=100/A=000003

1788551005: DL4LIF-8>APRSMC,TCPIP*,qAR,DO2LRF-11:T#947,1010.3,18.5,60.6,1010.5,0.0,00000000

1788551005: DL4LIF-8>APRSMC,TCPIP*,qAR,DO2LRF-11:!5325.69N/01021.18Es/B=100/A=000010

1788549194: DL4LIF-8>APRSMC,TCPIP*,qAR,DO2LRF-11:T#946,1009.9,18.7,60.6,1010.0,0.0,00000000

1788549194: DL4LIF-8>APRSMC,TCPIP*,qAR,DO2LRF-11:!5325.69N/01021.18Es/B=100

1788546603: DL4LIF-8>APRSMC,TCPIP*,qAR,DO2LRF-11:T#945,1009.2,19.1,60.8,1009.4,0.0,00000000

1788546603: DL4LIF-8>APRSMC,TCPIP*,qAR,DK4HPA-1:T#023,1009.2,19.1,60.8,1009.4,0.0,00000000

1788546603: DL4LIF-8>APRSMC,TCPIP*,qAR,DK4HPA-1:!5325.69N/01021.18Es/B=100

1788544787: DL4LIF-8>APRSMC,TCPIP*,qAR,DO2LRF-11:T#944,1008.9,19.3,61.2,1009.0,0.0,00000000